Time;durP1;ratioP1;P1;durP2;ratioP2;P2;SDS_P1;SDS_P2;PMS_P1;PMS_P2;Temp;Humidity;BMP_temperature;BMP_pressure;BME280_temperature;BME280_humidity;BME280_pressure;Samples;Min_cycle;Max_cycle;Signal;HPM_P1;HPM_P2
2023/03/10 00:01:19;;;;;;;21.27;12.87;;;;;;;;;;4383891;32;418449;-81
2023/03/10 00:03:46;;;;;;;17.87;11.00;;;;;;;;;;4401366;32;318940;-83
2023/03/10 00:06:16;;;;;;;16.60;10.80;;;;;;;;;;4402734;32;319277;-83
2023/03/10 00:08:44;;;;;;;27.33;13.30;;;;;;;;;;4408285;32;319547;-83
2023/03/10 00:11:13;;;;;;;26.13;12.43;;;;;;;;;;4387553;32;319325;-83
2023/03/10 00:13:39;;;;;;;28.40;13.43;;;;;;;;;;4397262;32;319193;-82
2023/03/10 00:16:07;;;;;;;23.43;13.10;;;;;;;;;;4386471;32;319605;-83
2023/03/10 00:18:35;;;;;;;23.77;12.47;;;;;;;;;;4395501;32;319240;-83
2023/03/10 00:21:02;;;;;;;23.80;11.77;;;;;;;;;;4389409;32;318761;-83
2023/03/10 00:23:29;;;;;;;25.83;12.83;;;;;;;;;;4398849;32;358151;-83
2023/03/10 00:25:57;;;;;;;25.00;13.43;;;;;;;;;;4390467;32;319885;-84
2023/03/10 00:28:24;;;;;;;27.93;13.57;;;;;;;;;;4399014;32;318738;-83
2023/03/10 00:31:01;;;;;;;22.70;12.87;;;;;;;;;;4387783;32;338050;-83
2023/03/10 00:33:30;;;;;;;17.20;10.53;;;;;;;;;;4400592;32;319468;-83
2023/03/10 00:36:09;;;;;;;18.00;9.73;;;;;;;;;;4389278;32;319560;-82
2023/03/10 00:38:36;;;;;;;12.83;8.37;;;;;;;;;;4399335;32;317613;-84
2023/03/10 00:41:05;;;;;;;23.03;10.70;;;;;;;;;;4389310;32;317946;-84
2023/03/10 00:43:32;;;;;;;19.30;10.23;;;;;;;;;;4398301;32;335871;-82
2023/03/10 00:45:59;;;;;;;16.13;9.73;;;;;;;;;;4388809;32;319538;-82
2023/03/10 00:48:26;;;;;;;26.60;9.23;;;;;;;;;;4400103;32;318140;-83
2023/03/10 00:50:53;;;;;;;21.03;12.13;;;;;;;;;;4387346;32;318431;-83
2023/03/10 00:53:21;;;;;;;30.10;12.13;;;;;;;;;;4399781;32;319877;-83
2023/03/10 00:55:58;;;;;;;34.87;14.93;;;;;;;;;;4399778;32;318673;-83
2023/03/10 00:58:25;;;;;;;25.90;16.40;;;;;;;;;;4386766;32;418326;-83
2023/03/10 01:00:53;;;;;;;31.70;15.20;;;;;;;;;;4387522;32;328606;-83
2023/03/10 01:03:20;;;;;;;27.13;14.87;;;;;;;;;;4399940;32;318808;-83
2023/03/10 01:05:48;;;;;;;26.90;16.03;;;;;;;;;;4407612;32;319335;-83
2023/03/10 01:08:14;;;;;;;30.27;16.37;;;;;;;;;;4385697;32;419788;-83
2023/03/10 01:10:43;;;;;;;24.77;13.40;;;;;;;;;;4398562;32;319268;-83
2023/03/10 01:13:10;;;;;;;28.33;13.53;;;;;;;;;;4389731;32;319231;-83
2023/03/10 01:15:37;;;;;;;23.77;13.97;;;;;;;;;;4399773;32;319952;-83
2023/03/10 01:18:04;;;;;;;32.53;16.47;;;;;;;;;;4385768;32;319290;-84
2023/03/10 01:20:32;;;;;;;27.63;14.30;;;;;;;;;;4397498;32;319324;-83
2023/03/10 01:23:01;;;;;;;28.27;14.80;;;;;;;;;;4388929;32;319387;-83
2023/03/10 01:25:28;;;;;;;28.13;14.77;;;;;;;;;;4398224;32;319096;-83
2023/03/10 01:27:56;;;;;;;30.23;15.43;;;;;;;;;;4382338;32;319111;-83
2023/03/10 01:30:23;;;;;;;35.10;17.77;;;;;;;;;;4409410;32;319588;-83
2023/03/10 01:32:50;;;;;;;44.23;21.00;;;;;;;;;;4389019;32;319261;-84
2023/03/10 01:35:16;;;;;;;41.00;20.80;;;;;;;;;;4397830;32;319490;-84
2023/03/10 01:37:45;;;;;;;41.13;21.73;;;;;;;;;;4398179;32;319346;-84
2023/03/10 01:40:15;;;;;;;36.87;18.90;;;;;;;;;;4388376;32;319806;-84
2023/03/10 01:42:42;;;;;;;37.90;18.87;;;;;;;;;;4395816;32;319754;-83
2023/03/10 01:45:49;;;;;;;43.07;18.97;;;;;;;;;;4389183;32;319626;-83
2023/03/10 01:48:17;;;;;;;30.03;17.97;;;;;;;;;;4385044;32;419748;-84
2023/03/10 01:50:46;;;;;;;34.93;18.93;;;;;;;;;;4401588;32;319504;-83
2023/03/10 01:53:14;;;;;;;39.80;18.73;;;;;;;;;;4393078;32;319802;-83
2023/03/10 01:55:46;;;;;;;34.90;21.50;;;;;;;;;;4401841;32;319172;-86
2023/03/10 01:58:15;;;;;;;37.60;20.27;;;;;;;;;;4389102;32;318652;-83
2023/03/10 02:00:44;;;;;;;33.57;18.90;;;;;;;;;;4399102;32;319028;-85
2023/03/10 02:03:17;;;;;;;31.70;18.07;;;;;;;;;;4387710;32;319233;-84
2023/03/10 02:05:48;;;;;;;35.57;17.57;;;;;;;;;;4416891;32;319081;-82
2023/03/10 02:08:16;;;;;;;37.90;18.93;;;;;;;;;;4403441;32;419856;-83
2023/03/10 02:10:44;;;;;;;28.77;18.23;;;;;;;;;;4400508;32;319534;-83
2023/03/10 02:13:11;;;;;;;39.90;18.30;;;;;;;;;;4388836;32;319716;-82
2023/03/10 02:15:43;;;;;;;34.10;18.13;;;;;;;;;;4397692;32;318690;-83
2023/03/10 02:18:14;;;;;;;40.03;17.47;;;;;;;;;;4388238;32;318808;-81
2023/03/10 02:20:48;;;;;;;31.10;16.87;;;;;;;;;;4401749;32;318715;-83
2023/03/10 02:23:23;;;;;;;30.70;18.50;;;;;;;;;;4386214;32;418806;-84
2023/03/10 02:25:54;;;;;;;26.93;15.47;;;;;;;;;;4388563;32;319321;-82
2023/03/10 02:28:23;;;;;;;35.10;17.40;;;;;;;;;;4397419;32;319761;-82
2023/03/10 02:30:53;;;;;;;29.97;16.47;;;;;;;;;;4386311;32;381970;-83
2023/03/10 02:33:23;;;;;;;26.00;16.30;;;;;;;;;;4398752;32;319182;-82
2023/03/10 02:35:50;;;;;;;25.80;17.07;;;;;;;;;;4388341;32;319458;-84
2023/03/10 02:38:17;;;;;;;29.23;17.20;;;;;;;;;;4398387;32;318585;-83
2023/03/10 02:40:46;;;;;;;32.13;17.50;;;;;;;;;;4397971;32;319396;-82
2023/03/10 02:43:19;;;;;;;38.30;18.70;;;;;;;;;;4388371;32;319309;-82
2023/03/10 02:45:48;;;;;;;43.70;24.30;;;;;;;;;;4397081;32;319614;-82
2023/03/10 02:48:20;;;;;;;39.43;21.90;;;;;;;;;;4384276;32;418185;-82
2023/03/10 02:50:47;;;;;;;36.77;17.77;;;;;;;;;;4395441;32;319824;-83
2023/03/10 02:53:17;;;;;;;35.40;18.23;;;;;;;;;;4369738;32;419815;-83
2023/03/10 02:55:44;;;;;;;50.97;21.83;;;;;;;;;;4383441;32;318716;-82
2023/03/10 02:58:11;;;;;;;33.30;19.17;;;;;;;;;;4372008;32;318938;-82
2023/03/10 03:00:40;;;;;;;38.77;19.30;;;;;;;;;;4382408;32;318811;-82
2023/03/10 03:03:10;;;;;;;35.83;17.10;;;;;;;;;;4372032;32;319166;-82
2023/03/10 03:05:37;;;;;;;30.07;17.57;;;;;;;;;;4366364;32;319349;-82
2023/03/10 03:08:05;;;;;;;24.67;14.80;;;;;;;;;;4358237;32;318653;-82
2023/03/10 03:10:33;;;;;;;25.43;14.80;;;;;;;;;;4367966;32;319322;-82
2023/03/10 03:13:00;;;;;;;22.20;13.00;;;;;;;;;;4362462;32;319481;-82
2023/03/10 03:15:27;;;;;;;26.70;13.87;;;;;;;;;;4390720;32;318574;-82
2023/03/10 03:17:57;;;;;;;23.37;14.17;;;;;;;;;;4372115;32;318638;-82
2023/03/10 03:20:26;;;;;;;21.27;14.03;;;;;;;;;;4387462;32;318730;-82
2023/03/10 03:22:53;;;;;;;72.63;32.13;;;;;;;;;;4373057;32;319712;-82
2023/03/10 03:25:22;;;;;;;31.20;15.93;;;;;;;;;;4382667;32;318742;-82
2023/03/10 03:27:49;;;;;;;25.70;12.50;;;;;;;;;;4372807;32;318643;-82
2023/03/10 03:30:18;;;;;;;22.47;12.67;;;;;;;;;;4381943;32;338922;-84
2023/03/10 03:32:45;;;;;;;25.07;14.40;;;;;;;;;;4381936;32;338545;-81
2023/03/10 03:35:18;;;;;;;22.93;11.70;;;;;;;;;;4371175;32;329408;-82
2023/03/10 03:37:47;;;;;;;22.37;12.47;;;;;;;;;;4382880;32;318649;-82
2023/03/10 03:40:14;;;;;;;21.40;12.10;;;;;;;;;;4368679;32;420638;-83
2023/03/10 03:42:42;;;;;;;20.27;12.47;;;;;;;;;;4382754;32;319819;-82
2023/03/10 03:45:14;;;;;;;21.00;12.70;;;;;;;;;;4371664;32;354588;-83
2023/03/10 03:47:41;;;;;;;58.47;32.00;;;;;;;;;;4380156;32;319614;-82
2023/03/10 03:50:09;;;;;;;56.50;32.87;;;;;;;;;;4370759;32;319731;-82
2023/03/10 03:52:37;;;;;;;39.43;25.67;;;;;;;;;;4380030;32;351702;-82
2023/03/10 03:55:06;;;;;;;37.97;20.70;;;;;;;;;;4369552;32;319696;-82
2023/03/10 03:57:32;;;;;;;285.17;89.57;;;;;;;;;;4381178;32;318604;-82
2023/03/10 03:59:59;;;;;;;380.03;121.73;;;;;;;;;;4376071;32;333612;-82
2023/03/10 04:02:26;;;;;;;279.83;92.90;;;;;;;;;;4382169;32;320630;-82
2023/03/10 04:04:54;;;;;;;249.20;84.57;;;;;;;;;;4371899;32;319732;-82
2023/03/10 04:07:20;;;;;;;267.60;92.60;;;;;;;;;;4381334;32;320383;-82
2023/03/10 04:09:48;;;;;;;233.73;86.43;;;;;;;;;;4397732;32;320301;-82
2023/03/10 04:12:16;;;;;;;164.40;63.53;;;;;;;;;;4383957;32;417370;-82
2023/03/10 04:14:42;;;;;;;162.40;68.17;;;;;;;;;;4390022;32;320481;-82
2023/03/10 04:17:09;;;;;;;169.27;72.70;;;;;;;;;;4368182;32;320537;-82
2023/03/10 04:19:36;;;;;;;154.93;70.47;;;;;;;;;;4406379;32;320592;-82
2023/03/10 04:22:04;;;;;;;160.90;80.13;;;;;;;;;;4386215;32;320558;-82
2023/03/10 04:24:31;;;;;;;169.97;89.83;;;;;;;;;;4397303;32;320478;-81
2023/03/10 04:26:58;;;;;;;140.80;75.93;;;;;;;;;;4387631;32;320409;-82
2023/03/10 04:29:26;;;;;;;130.23;72.83;;;;;;;;;;4396308;32;320585;-82
2023/03/10 04:31:53;;;;;;;118.80;63.10;;;;;;;;;;4386935;32;320868;-83
2023/03/10 04:34:19;;;;;;;94.27;55.17;;;;;;;;;;4393468;32;332933;-82
2023/03/10 04:36:48;;;;;;;96.10;56.70;;;;;;;;;;4396039;32;353540;-82
2023/03/10 04:39:15;;;;;;;92.37;54.80;;;;;;;;;;4383638;32;417224;-83
2023/03/10 04:41:44;;;;;;;107.13;60.93;;;;;;;;;;4397065;32;319623;-82
2023/03/10 04:44:12;;;;;;;94.17;58.77;;;;;;;;;;4386461;32;320476;-81
2023/03/10 04:46:40;;;;;;;109.30;55.57;;;;;;;;;;4395743;32;319221;-83
2023/03/10 04:49:07;;;;;;;100.40;56.93;;;;;;;;;;4385181;32;320499;-82
2023/03/10 04:51:34;;;;;;;106.67;56.80;;;;;;;;;;4383271;32;320610;-83
2023/03/10 04:54:01;;;;;;;105.30;60.23;;;;;;;;;;4373851;32;320152;-83
2023/03/10 04:56:28;;;;;;;110.53;59.87;;;;;;;;;;4383149;32;353907;-82
2023/03/10 04:58:55;;;;;;;106.77;58.73;;;;;;;;;;4371993;32;320643;-83
2023/03/10 05:01:22;;;;;;;84.60;47.67;;;;;;;;;;4380603;32;319580;-82
2023/03/10 05:03:50;;;;;;;84.50;44.83;;;;;;;;;;4387122;32;318676;-83
2023/03/10 05:06:20;;;;;;;93.53;45.87;;;;;;;;;;4403375;32;319325;-82
2023/03/10 05:08:46;;;;;;;61.47;34.40;;;;;;;;;;4400388;32;319271;-81
2023/03/10 05:11:14;;;;;;;63.37;35.83;;;;;;;;;;4390740;32;319154;-82
2023/03/10 05:13:40;;;;;;;61.60;35.00;;;;;;;;;;4394426;32;318850;-81
2023/03/10 05:16:14;;;;;;;66.27;33.63;;;;;;;;;;4384069;32;318396;-80
2023/03/10 05:18:41;;;;;;;81.67;46.87;;;;;;;;;;4406474;32;319247;-82
2023/03/10 05:21:09;;;;;;;68.40;40.33;;;;;;;;;;4387330;32;319071;-81
2023/03/10 05:23:37;;;;;;;65.43;36.00;;;;;;;;;;4399706;32;318531;-81
2023/03/10 05:26:06;;;;;;;68.53;36.97;;;;;;;;;;4388685;32;319308;-81
2023/03/10 05:28:35;;;;;;;69.77;37.00;;;;;;;;;;4399102;32;318945;-80
2023/03/10 05:31:07;;;;;;;84.60;46.90;;;;;;;;;;4382773;32;318490;-83
2023/03/10 05:33:34;;;;;;;67.83;35.53;;;;;;;;;;4408330;32;319322;-82
2023/03/10 05:36:06;;;;;;;57.07;33.17;;;;;;;;;;4387291;32;319185;-83
2023/03/10 05:38:34;;;;;;;66.67;33.37;;;;;;;;;;4396731;32;333973;-81
2023/03/10 05:41:01;;;;;;;59.60;33.10;;;;;;;;;;4388432;32;319278;-81
2023/03/10 05:43:28;;;;;;;77.07;34.53;;;;;;;;;;4397775;32;319227;-81
2023/03/10 05:45:56;;;;;;;66.50;35.23;;;;;;;;;;4387867;32;318841;-82
2023/03/10 05:48:26;;;;;;;68.43;36.30;;;;;;;;;;4382810;32;318870;-82
2023/03/10 05:51:00;;;;;;;91.23;48.27;;;;;;;;;;4383362;32;319309;-83
2023/03/10 05:53:30;;;;;;;77.43;46.43;;;;;;;;;;4396392;32;322195;-82
2023/03/10 05:56:01;;;;;;;93.30;48.70;;;;;;;;;;4388211;32;319109;-83
2023/03/10 05:58:30;;;;;;;80.73;42.77;;;;;;;;;;4403453;32;319287;-83
2023/03/10 06:00:57;;;;;;;73.47;41.20;;;;;;;;;;4381108;32;318537;-82
2023/03/10 06:03:24;;;;;;;74.40;41.80;;;;;;;;;;4396732;32;318686;-83
2023/03/10 06:05:51;;;;;;;66.43;35.50;;;;;;;;;;4403207;32;318943;-83
2023/03/10 06:08:18;;;;;;;62.97;38.63;;;;;;;;;;4410717;32;319460;-82
2023/03/10 06:10:44;;;;;;;74.03;39.40;;;;;;;;;;4395865;32;318646;-82
2023/03/10 06:13:13;;;;;;;75.50;42.40;;;;;;;;;;4385202;32;318760;-80
2023/03/10 06:15:40;;;;;;;92.93;47.77;;;;;;;;;;4394744;32;318317;-80
2023/03/10 06:18:07;;;;;;;87.00;44.20;;;;;;;;;;4387154;32;318755;-82
2023/03/10 06:20:33;;;;;;;83.70;45.47;;;;;;;;;;4396482;32;322478;-81
2023/03/10 06:23:00;;;;;;;92.57;51.17;;;;;;;;;;4388051;32;319177;-81
2023/03/10 06:25:27;;;;;;;91.87;57.30;;;;;;;;;;4398099;32;319519;-81
2023/03/10 06:27:54;;;;;;;90.50;51.83;;;;;;;;;;4386297;32;319617;-84
2023/03/10 06:30:22;;;;;;;81.53;47.47;;;;;;;;;;4396921;32;319688;-83
2023/03/10 06:32:49;;;;;;;79.13;44.30;;;;;;;;;;4387945;32;318416;-82
2023/03/10 06:35:16;;;;;;;77.77;44.27;;;;;;;;;;4395625;32;319664;-81
2023/03/10 06:37:43;;;;;;;68.47;40.73;;;;;;;;;;4397199;32;319117;-82
2023/03/10 06:40:13;;;;;;;65.60;39.00;;;;;;;;;;4385997;32;318614;-83
2023/03/10 06:42:40;;;;;;;76.63;43.03;;;;;;;;;;4395637;32;326581;-85
2023/03/10 06:45:09;;;;;;;82.87;45.23;;;;;;;;;;4379911;32;319193;-82
2023/03/10 06:47:37;;;;;;;65.27;36.80;;;;;;;;;;4406232;32;319188;-84
2023/03/10 06:50:05;;;;;;;43.20;27.57;;;;;;;;;;4383408;32;319235;-81
2023/03/10 06:52:33;;;;;;;39.73;24.77;;;;;;;;;;4381627;32;318465;-82
2023/03/10 06:55:00;;;;;;;41.67;23.23;;;;;;;;;;4373152;32;318710;-81
2023/03/10 06:57:28;;;;;;;40.23;21.47;;;;;;;;;;4383040;32;319226;-84
2023/03/10 06:59:55;;;;;;;42.90;24.10;;;;;;;;;;4387925;32;319385;-81
2023/03/10 07:02:22;;;;;;;38.60;21.23;;;;;;;;;;4396263;32;318959;-80
2023/03/10 07:04:51;;;;;;;39.80;21.13;;;;;;;;;;4397103;32;318719;-82
2023/03/10 07:07:18;;;;;;;43.70;21.90;;;;;;;;;;4411071;32;319372;-81
2023/03/10 07:09:45;;;;;;;48.77;24.57;;;;;;;;;;4400762;32;319384;-82
2023/03/10 07:12:12;;;;;;;45.27;25.00;;;;;;;;;;4388618;32;318892;-83
2023/03/10 07:14:39;;;;;;;53.97;26.83;;;;;;;;;;4382037;32;319222;-84
2023/03/10 07:17:06;;;;;;;48.07;27.30;;;;;;;;;;4371968;32;318415;-80
2023/03/10 07:19:33;;;;;;;62.73;36.47;;;;;;;;;;4381550;32;319278;-83
2023/03/10 07:22:07;;;;;;;59.33;32.30;;;;;;;;;;4370755;32;319087;-85
2023/03/10 07:24:34;;;;;;;59.03;33.53;;;;;;;;;;4382490;32;319178;-81
2023/03/10 07:27:03;;;;;;;59.47;34.57;;;;;;;;;;4372335;32;319612;-80
2023/03/10 07:29:30;;;;;;;62.37;38.67;;;;;;;;;;4379770;32;356061;-81
2023/03/10 07:31:58;;;;;;;56.50;35.47;;;;;;;;;;4371000;32;319538;-82
2023/03/10 07:34:25;;;;;;;55.00;32.00;;;;;;;;;;4379737;32;319995;-81
2023/03/10 07:36:51;;;;;;;79.40;38.20;;;;;;;;;;4379926;32;338358;-82
2023/03/10 07:39:20;;;;;;;62.03;35.73;;;;;;;;;;4397049;32;319559;-81
2023/03/10 07:41:46;;;;;;;44.70;29.23;;;;;;;;;;4398644;32;319227;-80
2023/03/10 07:44:14;;;;;;;43.23;26.10;;;;;;;;;;4389230;32;319660;-80
2023/03/10 07:46:41;;;;;;;45.97;24.83;;;;;;;;;;4390738;32;319232;-81
2023/03/10 07:49:07;;;;;;;42.23;23.50;;;;;;;;;;4393608;32;319080;-79
2023/03/10 07:51:34;;;;;;;44.83;24.60;;;;;;;;;;4399307;32;319554;-81
2023/03/10 07:54:02;;;;;;;36.77;25.53;;;;;;;;;;4387421;32;319054;-81
2023/03/10 07:56:32;;;;;;;43.57;26.43;;;;;;;;;;4394889;32;319196;-80
2023/03/10 07:58:59;;;;;;;33.33;21.40;;;;;;;;;;4384497;32;352491;-85
2023/03/10 08:01:26;;;;;;;39.67;22.17;;;;;;;;;;4395838;32;318694;-84
2023/03/10 08:03:53;;;;;;;27.30;16.07;;;;;;;;;;4391564;32;319192;-83
2023/03/10 08:06:21;;;;;;;21.90;13.67;;;;;;;;;;4412578;32;318643;-84
2023/03/10 08:08:49;;;;;;;27.13;16.37;;;;;;;;;;4407856;32;319389;-84
2023/03/10 08:11:17;;;;;;;22.00;15.27;;;;;;;;;;4369121;32;417252;-86
2023/03/10 08:13:47;;;;;;;30.00;15.40;;;;;;;;;;4380586;32;319060;-84
2023/03/10 08:16:14;;;;;;;39.90;20.53;;;;;;;;;;4383585;32;378799;-83
2023/03/10 08:18:45;;;;;;;26.17;17.27;;;;;;;;;;4395697;32;318714;-83
2023/03/10 08:21:12;;;;;;;27.30;14.90;;;;;;;;;;4385739;32;318797;-83
2023/03/10 08:23:40;;;;;;;25.77;15.03;;;;;;;;;;4395485;32;318629;-83
2023/03/10 08:26:11;;;;;;;27.10;16.77;;;;;;;;;;4386366;32;319584;-85
2023/03/10 08:28:37;;;;;;;26.90;14.57;;;;;;;;;;4396269;32;319139;-83
2023/03/10 08:31:09;;;;;;;26.23;17.37;;;;;;;;;;4386957;32;319538;-84
2023/03/10 08:33:36;;;;;;;41.57;22.07;;;;;;;;;;4395868;32;319256;-82
2023/03/10 08:36:06;;;;;;;26.87;17.87;;;;;;;;;;4385292;32;319382;-84
2023/03/10 08:38:33;;;;;;;27.20;19.03;;;;;;;;;;4395136;32;318893;-83
2023/03/10 08:41:09;;;;;;;23.70;16.27;;;;;;;;;;4389081;32;319315;-86
2023/03/10 08:43:38;;;;;;;26.40;15.53;;;;;;;;;;4398783;32;319068;-85
2023/03/10 08:46:05;;;;;;;23.20;12.73;;;;;;;;;;4388682;32;319659;-84
2023/03/10 08:48:33;;;;;;;20.00;13.17;;;;;;;;;;4399516;32;319413;-84
2023/03/10 08:51:00;;;;;;;21.10;14.30;;;;;;;;;;4389096;32;319370;-84
2023/03/10 08:53:28;;;;;;;25.80;15.63;;;;;;;;;;4399140;32;319779;-83
2023/03/10 08:55:55;;;;;;;25.33;14.50;;;;;;;;;;4387272;32;319235;-81
2023/03/10 08:58:23;;;;;;;29.73;15.63;;;;;;;;;;4397853;32;318550;-81
2023/03/10 09:00:50;;;;;;;28.60;12.83;;;;;;;;;;4387902;32;324844;-86
2023/03/10 09:03:17;;;;;;;27.33;13.43;;;;;;;;;;4399280;32;319082;-82
2023/03/10 09:05:46;;;;;;;25.67;14.73;;;;;;;;;;4414569;32;318783;-83
2023/03/10 09:08:13;;;;;;;26.10;13.97;;;;;;;;;;4404621;32;319359;-85
2023/03/10 09:10:41;;;;;;;27.20;13.50;;;;;;;;;;4402094;32;318746;-84
2023/03/10 09:13:08;;;;;;;21.87;12.43;;;;;;;;;;4390114;32;319397;-83
2023/03/10 09:15:39;;;;;;;50.23;34.03;;;;;;;;;;4399901;32;319279;-83
2023/03/10 09:18:07;;;;;;;21.47;14.50;;;;;;;;;;4389862;32;319086;-86
2023/03/10 09:20:33;;;;;;;25.83;14.53;;;;;;;;;;4406640;32;318682;-84
2023/03/10 09:23:02;;;;;;;31.67;12.40;;;;;;;;;;4392766;32;318996;-85
2023/03/10 09:25:29;;;;;;;18.33;12.87;;;;;;;;;;4401967;32;319236;-83
2023/03/10 09:27:56;;;;;;;19.27;11.53;;;;;;;;;;4390165;32;343604;-87
2023/03/10 09:30:22;;;;;;;17.80;11.77;;;;;;;;;;4400633;32;318553;-87
2023/03/10 09:32:50;;;;;;;19.47;12.33;;;;;;;;;;4389508;32;319250;-85
2023/03/10 09:35:18;;;;;;;18.17;11.47;;;;;;;;;;4400958;32;319531;-85
2023/03/10 09:37:45;;;;;;;20.80;12.53;;;;;;;;;;4403172;32;318514;-84
2023/03/10 09:40:17;;;;;;;29.07;14.53;;;;;;;;;;4392058;32;318114;-84
2023/03/10 09:42:46;;;;;;;30.30;14.73;;;;;;;;;;4400435;32;319309;-87
2023/03/10 09:45:33;;;;;;;24.50;14.57;;;;;;;;;;4389728;32;319428;-84
2023/03/10 09:48:10;;;;;;;25.87;15.50;;;;;;;;;;4388977;32;319479;-87
2023/03/10 09:50:42;;;;;;;16.60;10.23;;;;;;;;;;4398968;32;318712;-85
2023/03/10 09:53:24;;;;;;;20.93;11.07;;;;;;;;;;4388134;32;319621;-86
2023/03/10 09:55:53;;;;;;;28.10;13.03;;;;;;;;;;4384006;32;335997;-84
2023/03/10 09:58:32;;;;;;;36.70;16.10;;;;;;;;;;4399333;32;318567;-84
2023/03/10 10:01:00;;;;;;;31.27;16.43;;;;;;;;;;4384925;32;318827;-83
2023/03/10 10:03:32;;;;;;;31.70;17.67;;;;;;;;;;4401732;32;318730;-85
2023/03/10 10:06:00;;;;;;;58.43;37.57;;;;;;;;;;4405772;32;319299;-84
2023/03/10 10:08:28;;;;;;;30.00;21.13;;;;;;;;;;4410228;32;319250;-84
2023/03/10 10:10:59;;;;;;;25.17;15.43;;;;;;;;;;4394239;32;318579;-85
2023/03/10 10:13:29;;;;;;;28.60;17.60;;;;;;;;;;4400528;32;319232;-84
2023/03/10 10:16:02;;;;;;;24.50;15.23;;;;;;;;;;4397060;32;350027;-84
2023/03/10 10:18:36;;;;;;;30.83;18.80;;;;;;;;;;4408139;32;318974;-84
2023/03/10 10:21:09;;;;;;;31.67;16.70;;;;;;;;;;4399451;32;323708;-83
2023/03/10 10:23:42;;;;;;;36.43;18.13;;;;;;;;;;4407445;32;319230;-84
2023/03/10 10:26:12;;;;;;;37.60;18.37;;;;;;;;;;4398499;32;319366;-85
2023/03/10 10:28:43;;;;;;;26.47;18.00;;;;;;;;;;4406008;32;318163;-83
2023/03/10 10:31:16;;;;;;;31.17;21.27;;;;;;;;;;4395721;32;318680;-84
2023/03/10 10:34:00;;;;;;;32.97;20.70;;;;;;;;;;4404253;32;319630;-84
2023/03/10 10:36:30;;;;;;;33.73;20.47;;;;;;;;;;4390073;32;419562;-85
2023/03/10 10:39:00;;;;;;;29.97;20.20;;;;;;;;;;4389272;32;319432;-86
2023/03/10 10:41:30;;;;;;;35.03;20.87;;;;;;;;;;4399489;32;319020;-85
2023/03/10 10:44:00;;;;;;;36.27;22.00;;;;;;;;;;4388782;32;319803;-85
2023/03/10 10:46:29;;;;;;;36.53;22.13;;;;;;;;;;4398499;32;319377;-85
2023/03/10 10:49:18;;;;;;;36.60;21.90;;;;;;;;;;4387155;32;319382;-83
2023/03/10 10:51:56;;;;;;;310.27;186.93;;;;;;;;;;4396605;32;319272;-85
2023/03/10 10:54:27;;;;;;;73.80;43.23;;;;;;;;;;4385444;32;423043;-82
2023/03/10 10:57:00;;;;;;;58.93;37.37;;;;;;;;;;4389810;32;319328;-85
2023/03/10 10:59:32;;;;;;;55.50;29.63;;;;;;;;;;4401209;32;319334;-84
2023/03/10 11:02:01;;;;;;;55.77;34.20;;;;;;;;;;4386900;32;319492;-85
2023/03/10 11:04:40;;;;;;;75.10;38.37;;;;;;;;;;4398924;32;318603;-86
2023/03/10 11:07:11;;;;;;;52.87;32.60;;;;;;;;;;4389119;32;344638;-84
2023/03/10 11:09:39;;;;;;;41.43;27.07;;;;;;;;;;4400135;32;348582;-83
2023/03/10 11:12:19;;;;;;;21.10;14.00;;;;;;;;;;4389768;32;318496;-84
2023/03/10 11:15:11;;;;;;;31.00;19.53;;;;;;;;;;4384056;32;319378;-85
2023/03/10 11:17:43;;;;;;;37.10;22.33;;;;;;;;;;4371159;32;421006;-84
2023/03/10 11:20:22;;;;;;;50.97;26.83;;;;;;;;;;4372283;32;319348;-84
2023/03/10 11:22:58;;;;;;;47.03;24.63;;;;;;;;;;4383029;32;348609;-83
2023/03/10 11:25:32;;;;;;;33.27;20.37;;;;;;;;;;4383602;32;420607;-85
2023/03/10 11:28:14;;;;;;;30.13;17.37;;;;;;;;;;4388681;32;319409;-82
2023/03/10 11:30:48;;;;;;;20.60;12.53;;;;;;;;;;4397482;32;318903;-84
2023/03/10 11:33:24;;;;;;;24.10;10.13;;;;;;;;;;4368670;32;421150;-84
2023/03/10 11:35:57;;;;;;;10.53;6.70;;;;;;;;;;4371773;32;319581;-83
2023/03/10 11:38:33;;;;;;;12.27;5.83;;;;;;;;;;4381423;32;318508;-87
2023/03/10 11:41:37;;;;;;;20.67;14.63;;;;;;;;;;4399215;32;318654;-81
2023/03/10 11:44:17;;;;;;;5.30;3.90;;;;;;;;;;4402614;32;319631;-81
2023/03/10 11:46:55;;;;;;;8.37;5.10;;;;;;;;;;4410849;32;317160;-83
2023/03/10 11:49:26;;;;;;;8.40;3.30;;;;;;;;;;4398922;32;417886;-83
2023/03/10 11:51:56;;;;;;;3.92;2.25;;;;;;;;;;4380570;32;317284;-82
2023/03/10 11:54:28;;;;;;;1.77;1.60;;;;;;;;;;4382484;32;316652;-83
2023/03/10 11:56:56;;;;;;;5.23;2.80;;;;;;;;;;4374743;32;317696;-83
2023/03/10 11:59:26;;;;;;;13.33;3.10;;;;;;;;;;4382703;32;317279;-83
2023/03/10 12:01:57;;;;;;;10.20;3.03;;;;;;;;;;4371120;32;318156;-86
2023/03/10 12:04:30;;;;;;;3.20;2.37;;;;;;;;;;4382279;32;318335;-82
2023/03/10 12:07:02;;;;;;;13.13;3.90;;;;;;;;;;4372796;32;317456;-85
2023/03/10 12:09:37;;;;;;;6.57;2.93;;;;;;;;;;4380826;32;340567;-82
2023/03/10 12:12:06;;;;;;;5.45;3.30;;;;;;;;;;4379588;32;325485;-82
2023/03/10 12:14:36;;;;;;;5.70;2.70;;;;;;;;;;4397638;32;317473;-85
2023/03/10 12:17:04;;;;;;;5.27;2.13;;;;;;;;;;4390452;32;317372;-82
2023/03/10 12:19:32;;;;;;;12.60;6.40;;;;;;;;;;4400401;32;316598;-83
2023/03/10 12:22:25;;;;;;;8.07;4.93;;;;;;;;;;4390316;32;318378;-83
2023/03/10 12:24:53;;;;;;;12.98;6.07;;;;;;;;;;4388021;32;317052;-84
2023/03/10 12:27:20;;;;;;;9.50;4.57;;;;;;;;;;4400128;32;317811;-84
2023/03/10 12:29:48;;;;;;;14.27;4.73;;;;;;;;;;4399514;32;316588;-84
2023/03/10 12:32:45;;;;;;;35.83;16.07;;;;;;;;;;4387198;32;417155;-83
2023/03/10 12:35:45;;;;;;;11.47;5.47;;;;;;;;;;4389138;32;319609;-83
2023/03/10 12:38:47;;;;;;;11.53;4.37;;;;;;;;;;4390518;32;318158;-85
2023/03/10 12:41:31;;;;;;;33.22;12.48;;;;;;;;;;4387477;32;385706;-84
2023/03/10 12:43:59;;;;;;;7.23;3.67;;;;;;;;;;4379070;32;320048;-84
2023/03/10 12:46:42;;;;;;;36.88;12.05;;;;;;;;;;4398010;32;317945;-84
2023/03/10 12:49:24;;;;;;;28.40;9.23;;;;;;;;;;4389375;32;319571;-85
2023/03/10 12:51:57;;;;;;;20.37;7.22;;;;;;;;;;4386501;32;318315;-83
2023/03/10 12:54:47;;;;;;;23.70;9.32;;;;;;;;;;4400445;32;318730;-82
2023/03/10 12:57:19;;;;;;;29.85;10.30;;;;;;;;;;4385598;32;420143;-83
2023/03/10 12:59:55;;;;;;;9.23;3.03;;;;;;;;;;4398496;32;319443;-86
2023/03/10 13:02:39;;;;;;;13.23;3.97;;;;;;;;;;4386748;32;417359;-82
2023/03/10 13:05:17;;;;;;;17.48;7.37;;;;;;;;;;4402123;32;318401;-85
2023/03/10 13:07:47;;;;;;;16.62;4.25;;;;;;;;;;4414176;32;317824;-83
2023/03/10 13:10:19;;;;;;;5.97;3.50;;;;;;;;;;4388489;32;420190;-85
2023/03/10 13:12:50;;;;;;;24.85;11.52;;;;;;;;;;4399676;32;340994;-86
2023/03/10 13:15:22;;;;;;;18.20;6.80;;;;;;;;;;4376677;32;418567;-84
2023/03/10 13:17:50;;;;;;;27.62;10.40;;;;;;;;;;4381754;32;352941;-84
2023/03/10 13:20:18;;;;;;;16.33;8.48;;;;;;;;;;4370431;32;418791;-82
2023/03/10 13:22:56;;;;;;;19.30;4.70;;;;;;;;;;4383440;32;317529;-84
2023/03/10 13:25:23;;;;;;;11.80;5.35;;;;;;;;;;4369545;32;417663;-84
2023/03/10 13:27:51;;;;;;;57.60;23.45;;;;;;;;;;4374583;32;318546;-84
2023/03/10 13:30:20;;;;;;;66.55;25.75;;;;;;;;;;4384442;32;319631;-85
2023/03/10 13:32:57;;;;;;;33.97;14.80;;;;;;;;;;4403320;32;318816;-83
2023/03/10 13:35:29;;;;;;;24.05;11.93;;;;;;;;;;4405227;32;418427;-87
2023/03/10 13:38:15;;;;;;;11.38;3.70;;;;;;;;;;4407824;32;318951;-85
2023/03/10 13:40:43;;;;;;;10.32;5.68;;;;;;;;;;4415047;32;318196;-87
2023/03/10 13:43:40;;;;;;;14.68;6.18;;;;;;;;;;4403983;32;318105;-83
2023/03/10 13:46:14;;;;;;;6.95;4.05;;;;;;;;;;4404254;32;318272;-83
2023/03/10 13:48:43;;;;;;;7.20;3.20;;;;;;;;;;4415357;32;316629;-83
2023/03/10 13:51:19;;;;;;;9.98;3.95;;;;;;;;;;4395753;32;317505;-84
2023/03/10 13:53:51;;;;;;;4.57;2.27;;;;;;;;;;4383913;32;317095;-84
2023/03/10 13:56:22;;;;;;;15.07;6.97;;;;;;;;;;4371607;32;417845;-85
2023/03/10 13:58:51;;;;;;;6.67;2.60;;;;;;;;;;4382159;32;334820;-83
2023/03/10 14:01:23;;;;;;;11.02;5.00;;;;;;;;;;4371128;32;417979;-81
2023/03/10 14:03:57;;;;;;;14.85;6.50;;;;;;;;;;4371479;32;398619;-81
2023/03/10 14:06:25;;;;;;;19.20;8.37;;;;;;;;;;4383526;32;327814;-86
2023/03/10 14:08:52;;;;;;;6.27;4.03;;;;;;;;;;4370523;32;317903;-84
2023/03/10 14:11:29;;;;;;;14.93;2.20;;;;;;;;;;4382907;32;326806;-88
2023/03/10 14:13:56;;;;;;;7.10;2.50;;;;;;;;;;4373220;32;335544;-82
2023/03/10 14:16:44;;;;;;;4.37;2.35;;;;;;;;;;4383371;32;316797;-83
2023/03/10 14:19:12;;;;;;;10.55;6.32;;;;;;;;;;4373979;32;317562;-83
2023/03/10 14:21:39;;;;;;;5.03;1.97;;;;;;;;;;4383203;32;318493;-85
2023/03/10 14:24:10;;;;;;;2.87;1.90;;;;;;;;;;4370076;32;317459;-85